Mariarade, Netherlands
Current Conditions -  °F | °C
As of 6:55 PM on Saturday 25 Oct 2014 (Local Time) from EHBK Reporting Station
Light Rain Light Rain  
Wind Chill: 55°   Ceiling: 2000
Heat Index: 55°   Visibility: 4mi
Dew Point: 54°   Wind: 6mph
Humidity: 94%   Direction: 270°W
Pressure: 30.15"   Gusts: NA
Location:  50.93°N, 5.93°E
Report Text: EHBK 251655Z AUTO 27005KT 220V330 6000 -RADZ FEW008 OVC02013/12 Q1021 REDZ BECMG 6000 NSW SCT008 BKN015
Loading
Personal Weather Stations






























Interactive Weather Map
Tropical Storm Tracking
New forecast layout! Learn more

10-Day Weather Forecast

Advertisements
Track Severe Weather on mobile